sensor_id;sensor_type;location;lat;lon;timestamp;P1;durP1;ratioP1;P2;durP2;ratioP2
11173;SDS011;5643;50.856;12.088;2022-12-07T00:00:43;5.73;;;5.23;;
11173;SDS011;5643;50.856;12.088;2022-12-07T00:03:11;5.40;;;5.00;;
11173;SDS011;5643;50.856;12.088;2022-12-07T00:05:38;5.30;;;4.90;;
11173;SDS011;5643;50.856;12.088;2022-12-07T00:08:04;4.53;;;4.23;;
11173;SDS011;5643;50.856;12.088;2022-12-07T00:10:34;5.20;;;4.80;;
11173;SDS011;5643;50.856;12.088;2022-12-07T00:13:01;5.40;;;4.90;;
11173;SDS011;5643;50.856;12.088;2022-12-07T00:15:28;4.87;;;4.47;;
11173;SDS011;5643;50.856;12.088;2022-12-07T00:17:55;5.13;;;4.73;;
11173;SDS011;5643;50.856;12.088;2022-12-07T00:20:23;5.03;;;4.63;;
11173;SDS011;5643;50.856;12.088;2022-12-07T00:22:50;5.10;;;4.70;;
11173;SDS011;5643;50.856;12.088;2022-12-07T00:25:17;5.43;;;5.00;;
11173;SDS011;5643;50.856;12.088;2022-12-07T00:27:43;5.60;;;5.10;;
11173;SDS011;5643;50.856;12.088;2022-12-07T00:30:10;5.30;;;4.87;;
11173;SDS011;5643;50.856;12.088;2022-12-07T00:32:38;6.70;;;6.10;;
11173;SDS011;5643;50.856;12.088;2022-12-07T00:35:05;6.37;;;5.80;;
11173;SDS011;5643;50.856;12.088;2022-12-07T00:37:33;6.30;;;5.70;;
11173;SDS011;5643;50.856;12.088;2022-12-07T00:39:59;6.27;;;5.77;;
11173;SDS011;5643;50.856;12.088;2022-12-07T00:42:26;6.33;;;5.77;;
11173;SDS011;5643;50.856;12.088;2022-12-07T00:44:53;5.70;;;5.20;;
11173;SDS011;5643;50.856;12.088;2022-12-07T00:47:20;5.47;;;4.97;;
11173;SDS011;5643;50.856;12.088;2022-12-07T00:49:47;5.70;;;5.20;;
11173;SDS011;5643;50.856;12.088;2022-12-07T00:52:14;5.43;;;4.97;;
11173;SDS011;5643;50.856;12.088;2022-12-07T00:54:42;5.20;;;4.70;;
11173;SDS011;5643;50.856;12.088;2022-12-07T00:57:09;5.57;;;5.07;;
11173;SDS011;5643;50.856;12.088;2022-12-07T00:59:35;5.00;;;4.60;;
11173;SDS011;5643;50.856;12.088;2022-12-07T01:02:02;4.87;;;4.47;;
11173;SDS011;5643;50.856;12.088;2022-12-07T01:04:29;5.00;;;4.60;;
11173;SDS011;5643;50.856;12.088;2022-12-07T01:06:56;5.17;;;4.77;;
11173;SDS011;5643;50.856;12.088;2022-12-07T01:09:23;5.13;;;4.67;;
11173;SDS011;5643;50.856;12.088;2022-12-07T01:11:51;4.90;;;4.50;;
11173;SDS011;5643;50.856;12.088;2022-12-07T01:14:17;4.40;;;4.00;;
11173;SDS011;5643;50.856;12.088;2022-12-07T01:16:45;4.60;;;4.20;;
11173;SDS011;5643;50.856;12.088;2022-12-07T01:19:12;4.40;;;4.00;;
11173;SDS011;5643;50.856;12.088;2022-12-07T01:21:39;4.17;;;3.77;;
11173;SDS011;5643;50.856;12.088;2022-12-07T01:24:06;3.73;;;3.43;;
11173;SDS011;5643;50.856;12.088;2022-12-07T01:26:33;5.00;;;4.50;;
11173;SDS011;5643;50.856;12.088;2022-12-07T01:29:02;4.37;;;4.00;;
11173;SDS011;5643;50.856;12.088;2022-12-07T01:31:29;4.13;;;3.80;;
11173;SDS011;5643;50.856;12.088;2022-12-07T01:33:56;4.17;;;3.83;;
11173;SDS011;5643;50.856;12.088;2022-12-07T01:36:27;4.10;;;3.77;;
11173;SDS011;5643;50.856;12.088;2022-12-07T01:38:55;3.90;;;3.60;;
11173;SDS011;5643;50.856;12.088;2022-12-07T01:41:23;4.23;;;3.83;;
11173;SDS011;5643;50.856;12.088;2022-12-07T01:44:08;4.20;;;3.80;;
11173;SDS011;5643;50.856;12.088;2022-12-07T01:46:35;4.10;;;3.70;;
11173;SDS011;5643;50.856;12.088;2022-12-07T01:49:02;4.40;;;4.00;;
11173;SDS011;5643;50.856;12.088;2022-12-07T01:51:29;3.87;;;3.50;;
11173;SDS011;5643;50.856;12.088;2022-12-07T01:53:57;3.53;;;3.23;;
11173;SDS011;5643;50.856;12.088;2022-12-07T01:56:26;3.37;;;3.10;;
11173;SDS011;5643;50.856;12.088;2022-12-07T01:58:52;3.90;;;3.60;;
11173;SDS011;5643;50.856;12.088;2022-12-07T02:01:21;4.00;;;3.70;;
11173;SDS011;5643;50.856;12.088;2022-12-07T02:03:48;3.60;;;3.30;;
11173;SDS011;5643;50.856;12.088;2022-12-07T02:06:16;3.87;;;3.53;;
11173;SDS011;5643;50.856;12.088;2022-12-07T02:08:44;3.73;;;3.40;;
11173;SDS011;5643;50.856;12.088;2022-12-07T02:11:11;4.03;;;3.67;;
11173;SDS011;5643;50.856;12.088;2022-12-07T02:13:39;3.70;;;3.40;;
11173;SDS011;5643;50.856;12.088;2022-12-07T02:16:09;3.60;;;3.30;;
11173;SDS011;5643;50.856;12.088;2022-12-07T02:18:44;3.23;;;2.93;;
11173;SDS011;5643;50.856;12.088;2022-12-07T02:21:19;3.47;;;3.17;;
11173;SDS011;5643;50.856;12.088;2022-12-07T02:23:52;3.43;;;3.13;;
11173;SDS011;5643;50.856;12.088;2022-12-07T02:26:42;3.73;;;3.43;;
11173;SDS011;5643;50.856;12.088;2022-12-07T02:29:14;3.70;;;3.40;;
11173;SDS011;5643;50.856;12.088;2022-12-07T02:31:44;3.60;;;3.30;;
11173;SDS011;5643;50.856;12.088;2022-12-07T02:34:14;3.77;;;3.47;;
11173;SDS011;5643;50.856;12.088;2022-12-07T02:36:44;3.30;;;3.00;;
11173;SDS011;5643;50.856;12.088;2022-12-07T02:39:15;3.20;;;2.90;;
11173;SDS011;5643;50.856;12.088;2022-12-07T02:41:44;3.27;;;2.97;;
11173;SDS011;5643;50.856;12.088;2022-12-07T02:44:12;3.30;;;3.03;;
11173;SDS011;5643;50.856;12.088;2022-12-07T02:46:41;3.27;;;2.97;;
11173;SDS011;5643;50.856;12.088;2022-12-07T02:49:08;3.13;;;2.83;;
11173;SDS011;5643;50.856;12.088;2022-12-07T02:51:38;2.73;;;2.53;;
11173;SDS011;5643;50.856;12.088;2022-12-07T02:54:07;3.27;;;2.97;;
11173;SDS011;5643;50.856;12.088;2022-12-07T02:56:37;3.00;;;2.80;;
11173;SDS011;5643;50.856;12.088;2022-12-07T02:59:07;3.00;;;2.80;;
11173;SDS011;5643;50.856;12.088;2022-12-07T03:01:40;2.87;;;2.67;;
11173;SDS011;5643;50.856;12.088;2022-12-07T03:04:15;2.80;;;2.60;;
11173;SDS011;5643;50.856;12.088;2022-12-07T03:06:46;2.80;;;2.60;;
11173;SDS011;5643;50.856;12.088;2022-12-07T03:09:15;2.70;;;2.50;;
11173;SDS011;5643;50.856;12.088;2022-12-07T03:11:45;2.47;;;2.30;;
11173;SDS011;5643;50.856;12.088;2022-12-07T03:14:13;3.47;;;3.17;;
11173;SDS011;5643;50.856;12.088;2022-12-07T03:16:42;2.80;;;2.60;;
11173;SDS011;5643;50.856;12.088;2022-12-07T03:19:10;2.60;;;2.40;;
11173;SDS011;5643;50.856;12.088;2022-12-07T03:21:40;2.50;;;2.30;;
11173;SDS011;5643;50.856;12.088;2022-12-07T03:24:09;2.90;;;2.70;;
11173;SDS011;5643;50.856;12.088;2022-12-07T03:26:38;2.53;;;2.33;;
11173;SDS011;5643;50.856;12.088;2022-12-07T03:29:05;2.73;;;2.53;;
11173;SDS011;5643;50.856;12.088;2022-12-07T03:31:33;2.70;;;2.50;;
11173;SDS011;5643;50.856;12.088;2022-12-07T03:34:02;2.30;;;2.10;;
11173;SDS011;5643;50.856;12.088;2022-12-07T03:36:34;2.97;;;2.53;;
11173;SDS011;5643;50.856;12.088;2022-12-07T03:39:04;2.77;;;2.47;;
11173;SDS011;5643;50.856;12.088;2022-12-07T03:41:34;2.97;;;2.67;;
11173;SDS011;5643;50.856;12.088;2022-12-07T03:44:02;2.30;;;2.17;;
11173;SDS011;5643;50.856;12.088;2022-12-07T03:46:32;2.47;;;2.27;;
11173;SDS011;5643;50.856;12.088;2022-12-07T03:49:05;2.03;;;1.93;;
11173;SDS011;5643;50.856;12.088;2022-12-07T03:51:34;2.10;;;1.90;;
11173;SDS011;5643;50.856;12.088;2022-12-07T03:54:05;2.23;;;2.03;;
11173;SDS011;5643;50.856;12.088;2022-12-07T03:56:33;2.13;;;2.00;;
11173;SDS011;5643;50.856;12.088;2022-12-07T03:59:01;1.90;;;1.80;;
11173;SDS011;5643;50.856;12.088;2022-12-07T04:01:28;2.20;;;2.00;;
11173;SDS011;5643;50.856;12.088;2022-12-07T04:03:54;1.60;;;1.50;;
11173;SDS011;5643;50.856;12.088;2022-12-07T04:06:20;1.97;;;1.50;;
11173;SDS011;5643;50.856;12.088;2022-12-07T04:08:46;1.70;;;1.60;;
11173;SDS011;5643;50.856;12.088;2022-12-07T04:11:14;2.13;;;2.00;;
11173;SDS011;5643;50.856;12.088;2022-12-07T04:13:43;2.10;;;2.00;;
11173;SDS011;5643;50.856;12.088;2022-12-07T04:16:28;2.50;;;2.30;;
11173;SDS011;5643;50.856;12.088;2022-12-07T04:18:54;3.03;;;2.70;;
11173;SDS011;5643;50.856;12.088;2022-12-07T04:21:21;3.17;;;2.87;;
11173;SDS011;5643;50.856;12.088;2022-12-07T04:23:48;3.20;;;2.90;;
11173;SDS011;5643;50.856;12.088;2022-12-07T04:26:15;3.03;;;2.77;;
11173;SDS011;5643;50.856;12.088;2022-12-07T04:28:41;2.90;;;2.70;;
11173;SDS011;5643;50.856;12.088;2022-12-07T04:31:08;2.80;;;2.60;;
11173;SDS011;5643;50.856;12.088;2022-12-07T04:33:34;3.13;;;2.93;;
11173;SDS011;5643;50.856;12.088;2022-12-07T04:36:01;3.27;;;2.97;;
11173;SDS011;5643;50.856;12.088;2022-12-07T04:38:28;2.90;;;2.70;;
11173;SDS011;5643;50.856;12.088;2022-12-07T04:40:54;2.77;;;2.50;;
11173;SDS011;5643;50.856;12.088;2022-12-07T04:43:21;2.77;;;2.57;;
11173;SDS011;5643;50.856;12.088;2022-12-07T04:45:48;2.37;;;2.17;;
11173;SDS011;5643;50.856;12.088;2022-12-07T04:48:16;2.93;;;2.73;;
11173;SDS011;5643;50.856;12.088;2022-12-07T04:50:42;2.20;;;2.10;;
11173;SDS011;5643;50.856;12.088;2022-12-07T04:53:09;2.17;;;1.97;;
11173;SDS011;5643;50.856;12.088;2022-12-07T04:55:35;2.50;;;2.30;;
11173;SDS011;5643;50.856;12.088;2022-12-07T04:58:02;1.87;;;1.77;;
11173;SDS011;5643;50.856;12.088;2022-12-07T05:00:29;2.10;;;2.00;;
11173;SDS011;5643;50.856;12.088;2022-12-07T05:02:56;2.13;;;1.97;;
11173;SDS011;5643;50.856;12.088;2022-12-07T05:05:22;1.97;;;1.87;;
11173;SDS011;5643;50.856;12.088;2022-12-07T05:07:49;1.73;;;1.63;;
11173;SDS011;5643;50.856;12.088;2022-12-07T05:10:15;1.80;;;1.70;;
11173;SDS011;5643;50.856;12.088;2022-12-07T05:12:42;1.90;;;1.80;;
11173;SDS011;5643;50.856;12.088;2022-12-07T05:15:08;2.10;;;2.00;;
11173;SDS011;5643;50.856;12.088;2022-12-07T05:17:36;1.70;;;1.60;;
11173;SDS011;5643;50.856;12.088;2022-12-07T05:20:03;1.83;;;1.73;;
11173;SDS011;5643;50.856;12.088;2022-12-07T05:22:29;2.10;;;2.00;;
11173;SDS011;5643;50.856;12.088;2022-12-07T05:24:56;2.30;;;2.20;;
11173;SDS011;5643;50.856;12.088;2022-12-07T05:27:22;1.80;;;1.70;;
11173;SDS011;5643;50.856;12.088;2022-12-07T05:29:49;1.70;;;1.60;;
11173;SDS011;5643;50.856;12.088;2022-12-07T05:32:17;2.00;;;1.90;;
11173;SDS011;5643;50.856;12.088;2022-12-07T05:34:46;1.90;;;1.80;;
11173;SDS011;5643;50.856;12.088;2022-12-07T05:37:12;2.03;;;1.90;;
11173;SDS011;5643;50.856;12.088;2022-12-07T05:39:38;1.97;;;1.87;;
11173;SDS011;5643;50.856;12.088;2022-12-07T05:42:07;2.30;;;2.10;;
11173;SDS011;5643;50.856;12.088;2022-12-07T05:44:41;2.03;;;1.93;;
11173;SDS011;5643;50.856;12.088;2022-12-07T05:47:07;2.40;;;2.20;;
11173;SDS011;5643;50.856;12.088;2022-12-07T05:49:39;2.00;;;1.90;;
11173;SDS011;5643;50.856;12.088;2022-12-07T05:52:07;2.30;;;2.10;;
11173;SDS011;5643;50.856;12.088;2022-12-07T05:54:33;2.20;;;2.10;;
11173;SDS011;5643;50.856;12.088;2022-12-07T05:56:59;2.07;;;1.97;;
11173;SDS011;5643;50.856;12.088;2022-12-07T05:59:27;2.00;;;1.90;;
11173;SDS011;5643;50.856;12.088;2022-12-07T06:01:56;2.03;;;1.93;;
11173;SDS011;5643;50.856;12.088;2022-12-07T06:04:26;2.30;;;2.20;;
11173;SDS011;5643;50.856;12.088;2022-12-07T06:06:54;3.20;;;2.70;;
11173;SDS011;5643;50.856;12.088;2022-12-07T06:09:23;2.50;;;2.30;;
11173;SDS011;5643;50.856;12.088;2022-12-07T06:11:49;3.13;;;2.83;;
11173;SDS011;5643;50.856;12.088;2022-12-07T06:14:34;2.83;;;2.63;;
11173;SDS011;5643;50.856;12.088;2022-12-07T06:17:02;2.70;;;2.50;;
11173;SDS011;5643;50.856;12.088;2022-12-07T06:19:29;2.63;;;2.43;;
11173;SDS011;5643;50.856;12.088;2022-12-07T06:21:55;3.07;;;2.77;;
11173;SDS011;5643;50.856;12.088;2022-12-07T06:24:23;2.80;;;2.50;;
11173;SDS011;5643;50.856;12.088;2022-12-07T06:26:49;2.90;;;2.57;;
11173;SDS011;5643;50.856;12.088;2022-12-07T06:29:17;2.73;;;2.53;;
11173;SDS011;5643;50.856;12.088;2022-12-07T06:31:43;2.67;;;2.47;;
11173;SDS011;5643;50.856;12.088;2022-12-07T06:34:10;2.93;;;2.73;;
11173;SDS011;5643;50.856;12.088;2022-12-07T06:36:38;2.90;;;2.70;;
11173;SDS011;5643;50.856;12.088;2022-12-07T06:39:06;2.60;;;2.40;;
11173;SDS011;5643;50.856;12.088;2022-12-07T06:41:35;2.67;;;2.47;;
11173;SDS011;5643;50.856;12.088;2022-12-07T06:44:02;2.70;;;2.50;;
11173;SDS011;5643;50.856;12.088;2022-12-07T06:46:29;3.10;;;2.90;;
11173;SDS011;5643;50.856;12.088;2022-12-07T06:48:56;2.70;;;2.50;;
11173;SDS011;5643;50.856;12.088;2022-12-07T06:51:22;2.80;;;2.60;;
11173;SDS011;5643;50.856;12.088;2022-12-07T06:53:51;2.83;;;2.63;;
11173;SDS011;5643;50.856;12.088;2022-12-07T06:56:17;2.90;;;2.70;;
11173;SDS011;5643;50.856;12.088;2022-12-07T06:58:44;3.03;;;2.83;;
11173;SDS011;5643;50.856;12.088;2022-12-07T07:01:12;2.80;;;2.60;;
11173;SDS011;5643;50.856;12.088;2022-12-07T07:03:39;2.57;;;2.37;;
11173;SDS011;5643;50.856;12.088;2022-12-07T07:06:06;2.50;;;2.30;;
11173;SDS011;5643;50.856;12.088;2022-12-07T07:08:32;2.60;;;2.40;;
11173;SDS011;5643;50.856;12.088;2022-12-07T07:10:59;2.70;;;2.50;;
11173;SDS011;5643;50.856;12.088;2022-12-07T07:13:26;3.10;;;2.90;;
11173;SDS011;5643;50.856;12.088;2022-12-07T07:15:56;3.00;;;2.80;;
11173;SDS011;5643;50.856;12.088;2022-12-07T07:18:23;3.40;;;3.10;;
11173;SDS011;5643;50.856;12.088;2022-12-07T07:20:50;3.30;;;3.10;;
11173;SDS011;5643;50.856;12.088;2022-12-07T07:23:16;3.10;;;2.90;;
11173;SDS011;5643;50.856;12.088;2022-12-07T07:25:43;2.97;;;2.77;;
11173;SDS011;5643;50.856;12.088;2022-12-07T07:28:10;3.60;;;3.30;;
11173;SDS011;5643;50.856;12.088;2022-12-07T07:30:36;3.27;;;3.00;;
11173;SDS011;5643;50.856;12.088;2022-12-07T07:33:04;3.47;;;3.17;;
11173;SDS011;5643;50.856;12.088;2022-12-07T07:35:31;3.83;;;3.53;;
11173;SDS011;5643;50.856;12.088;2022-12-07T07:37:58;3.10;;;2.90;;
11173;SDS011;5643;50.856;12.088;2022-12-07T07:40:24;4.20;;;3.90;;
11173;SDS011;5643;50.856;12.088;2022-12-07T07:42:54;3.87;;;3.57;;
11173;SDS011;5643;50.856;12.088;2022-12-07T07:45:21;3.60;;;3.30;;
11173;SDS011;5643;50.856;12.088;2022-12-07T07:47:48;3.77;;;3.47;;
11173;SDS011;5643;50.856;12.088;2022-12-07T07:50:16;3.10;;;2.90;;
11173;SDS011;5643;50.856;12.088;2022-12-07T07:52:45;3.33;;;3.13;;
11173;SDS011;5643;50.856;12.088;2022-12-07T07:55:12;3.20;;;3.00;;
11173;SDS011;5643;50.856;12.088;2022-12-07T07:57:38;3.13;;;2.83;;
11173;SDS011;5643;50.856;12.088;2022-12-07T08:00:07;3.20;;;3.00;;
11173;SDS011;5643;50.856;12.088;2022-12-07T08:02:34;3.30;;;3.10;;
11173;SDS011;5643;50.856;12.088;2022-12-07T08:05:01;3.53;;;3.23;;
11173;SDS011;5643;50.856;12.088;2022-12-07T08:07:30;3.10;;;2.90;;
11173;SDS011;5643;50.856;12.088;2022-12-07T08:09:56;3.23;;;3.00;;
11173;SDS011;5643;50.856;12.088;2022-12-07T08:12:22;3.37;;;3.07;;
11173;SDS011;5643;50.856;12.088;2022-12-07T08:14:49;3.10;;;2.90;;
11173;SDS011;5643;50.856;12.088;2022-12-07T08:17:15;3.27;;;3.07;;
11173;SDS011;5643;50.856;12.088;2022-12-07T08:19:43;3.17;;;2.97;;
11173;SDS011;5643;50.856;12.088;2022-12-07T08:22:11;3.70;;;3.40;;
11173;SDS011;5643;50.856;12.088;2022-12-07T08:24:39;4.17;;;3.77;;
11173;SDS011;5643;50.856;12.088;2022-12-07T08:27:05;3.60;;;3.30;;
11173;SDS011;5643;50.856;12.088;2022-12-07T08:29:32;3.73;;;3.43;;
11173;SDS011;5643;50.856;12.088;2022-12-07T08:31:59;3.90;;;3.60;;
11173;SDS011;5643;50.856;12.088;2022-12-07T08:34:28;4.17;;;3.77;;
11173;SDS011;5643;50.856;12.088;2022-12-07T08:36:54;4.43;;;4.07;;
11173;SDS011;5643;50.856;12.088;2022-12-07T08:39:21;4.70;;;4.30;;
11173;SDS011;5643;50.856;12.088;2022-12-07T08:41:48;4.10;;;3.80;;
11173;SDS011;5643;50.856;12.088;2022-12-07T08:44:15;4.17;;;3.87;;
11173;SDS011;5643;50.856;12.088;2022-12-07T08:46:41;4.27;;;3.97;;
11173;SDS011;5643;50.856;12.088;2022-12-07T08:49:11;5.13;;;4.73;;
11173;SDS011;5643;50.856;12.088;2022-12-07T08:51:39;4.77;;;4.37;;
11173;SDS011;5643;50.856;12.088;2022-12-07T08:54:06;4.73;;;4.33;;
11173;SDS011;5643;50.856;12.088;2022-12-07T08:56:34;4.53;;;4.13;;
11173;SDS011;5643;50.856;12.088;2022-12-07T08:59:02;3.87;;;3.57;;
11173;SDS011;5643;50.856;12.088;2022-12-07T09:01:29;4.30;;;4.00;;
11173;SDS011;5643;50.856;12.088;2022-12-07T09:03:56;3.80;;;3.50;;
11173;SDS011;5643;50.856;12.088;2022-12-07T09:06:22;4.03;;;3.73;;
11173;SDS011;5643;50.856;12.088;2022-12-07T09:08:51;4.00;;;3.70;;
11173;SDS011;5643;50.856;12.088;2022-12-07T09:11:21;3.73;;;3.40;;
11173;SDS011;5643;50.856;12.088;2022-12-07T09:13:49;4.07;;;3.63;;
11173;SDS011;5643;50.856;12.088;2022-12-07T09:16:17;3.30;;;3.00;;
11173;SDS011;5643;50.856;12.088;2022-12-07T09:18:43;3.63;;;3.33;;
11173;SDS011;5643;50.856;12.088;2022-12-07T09:21:10;4.03;;;3.73;;
11173;SDS011;5643;50.856;12.088;2022-12-07T09:23:37;3.77;;;3.47;;
11173;SDS011;5643;50.856;12.088;2022-12-07T09:26:04;4.03;;;3.73;;
11173;SDS011;5643;50.856;12.088;2022-12-07T09:28:33;4.20;;;3.90;;
11173;SDS011;5643;50.856;12.088;2022-12-07T09:31:02;4.70;;;4.30;;
11173;SDS011;5643;50.856;12.088;2022-12-07T09:33:29;5.03;;;4.63;;
11173;SDS011;5643;50.856;12.088;2022-12-07T09:35:56;4.33;;;3.97;;
11173;SDS011;5643;50.856;12.088;2022-12-07T09:38:22;4.10;;;3.80;;
11173;SDS011;5643;50.856;12.088;2022-12-07T09:40:49;4.20;;;3.90;;
11173;SDS011;5643;50.856;12.088;2022-12-07T09:43:16;3.63;;;3.33;;
11173;SDS011;5643;50.856;12.088;2022-12-07T09:45:44;4.23;;;3.93;;
11173;SDS011;5643;50.856;12.088;2022-12-07T09:48:14;4.00;;;3.70;;
11173;SDS011;5643;50.856;12.088;2022-12-07T09:50:43;4.77;;;4.00;;
11173;SDS011;5643;50.856;12.088;2022-12-07T09:53:12;4.27;;;3.87;;
11173;SDS011;5643;50.856;12.088;2022-12-07T09:55:40;4.10;;;3.80;;
11173;SDS011;5643;50.856;12.088;2022-12-07T09:58:08;4.10;;;3.57;;
11173;SDS011;5643;50.856;12.088;2022-12-07T10:00:41;3.60;;;3.30;;
11173;SDS011;5643;50.856;12.088;2022-12-07T10:03:08;3.90;;;3.57;;
11173;SDS011;5643;50.856;12.088;2022-12-07T10:05:38;3.20;;;3.00;;
11173;SDS011;5643;50.856;12.088;2022-12-07T10:08:08;3.70;;;3.40;;
11173;SDS011;5643;50.856;12.088;2022-12-07T10:10:37;3.33;;;3.00;;
11173;SDS011;5643;50.856;12.088;2022-12-07T10:13:06;3.20;;;2.93;;
11173;SDS011;5643;50.856;12.088;2022-12-07T10:15:44;3.00;;;2.70;;
11173;SDS011;5643;50.856;12.088;2022-12-07T10:18:17;3.33;;;3.03;;
11173;SDS011;5643;50.856;12.088;2022-12-07T10:20:44;3.07;;;2.77;;
11173;SDS011;5643;50.856;12.088;2022-12-07T10:23:14;3.33;;;3.03;;
11173;SDS011;5643;50.856;12.088;2022-12-07T10:25:41;2.83;;;2.60;;
11173;SDS011;5643;50.856;12.088;2022-12-07T10:28:12;2.60;;;2.40;;
11173;SDS011;5643;50.856;12.088;2022-12-07T10:30:47;3.30;;;2.93;;
11173;SDS011;5643;50.856;12.088;2022-12-07T10:33:22;2.80;;;2.60;;
11173;SDS011;5643;50.856;12.088;2022-12-07T10:35:53;3.37;;;2.77;;
11173;SDS011;5643;50.856;12.088;2022-12-07T10:38:21;3.13;;;2.93;;
11173;SDS011;5643;50.856;12.088;2022-12-07T10:40:48;2.83;;;2.63;;
11173;SDS011;5643;50.856;12.088;2022-12-07T10:43:28;2.60;;;2.40;;
11173;SDS011;5643;50.856;12.088;2022-12-07T10:46:06;2.97;;;2.40;;
11173;SDS011;5643;50.856;12.088;2022-12-07T10:48:36;2.87;;;2.47;;
11173;SDS011;5643;50.856;12.088;2022-12-07T10:51:08;2.10;;;1.90;;
11173;SDS011;5643;50.856;12.088;2022-12-07T10:53:46;3.10;;;2.60;;
11173;SDS011;5643;50.856;12.088;2022-12-07T10:56:35;2.27;;;2.07;;
11173;SDS011;5643;50.856;12.088;2022-12-07T10:59:11;2.00;;;1.87;;
11173;SDS011;5643;50.856;12.088;2022-12-07T11:01:45;2.30;;;2.10;;
11173;SDS011;5643;50.856;12.088;2022-12-07T11:04:17;2.27;;;1.93;;
11173;SDS011;5643;50.856;12.088;2022-12-07T11:06:46;2.03;;;1.93;;
11173;SDS011;5643;50.856;12.088;2022-12-07T11:09:26;2.00;;;1.90;;
11173;SDS011;5643;50.856;12.088;2022-12-07T11:11:59;1.73;;;1.60;;
11173;SDS011;5643;50.856;12.088;2022-12-07T11:14:31;1.97;;;1.70;;
11173;SDS011;5643;50.856;12.088;2022-12-07T11:17:01;1.87;;;1.63;;
11173;SDS011;5643;50.856;12.088;2022-12-07T11:22:18;2.23;;;1.60;;
11173;SDS011;5643;50.856;12.088;2022-12-07T11:24:50;1.70;;;1.60;;
11173;SDS011;5643;50.856;12.088;2022-12-07T11:27:23;2.47;;;1.50;;
11173;SDS011;5643;50.856;12.088;2022-12-07T11:29:55;2.17;;;1.60;;
11173;SDS011;5643;50.856;12.088;2022-12-07T11:32:31;1.57;;;1.20;;
11173;SDS011;5643;50.856;12.088;2022-12-07T11:35:04;1.53;;;1.43;;
11173;SDS011;5643;50.856;12.088;2022-12-07T11:37:34;2.33;;;1.53;;
11173;SDS011;5643;50.856;12.088;2022-12-07T11:40:02;1.83;;;1.43;;
11173;SDS011;5643;50.856;12.088;2022-12-07T11:42:30;1.50;;;1.30;;
11173;SDS011;5643;50.856;12.088;2022-12-07T11:45:00;1.70;;;1.60;;
11173;SDS011;5643;50.856;12.088;2022-12-07T11:47:29;1.97;;;1.73;;
11173;SDS011;5643;50.856;12.088;2022-12-07T11:49:58;2.10;;;1.50;;
11173;SDS011;5643;50.856;12.088;2022-12-07T11:52:28;2.47;;;1.90;;
11173;SDS011;5643;50.856;12.088;2022-12-07T11:54:57;1.93;;;1.60;;
11173;SDS011;5643;50.856;12.088;2022-12-07T11:57:26;1.60;;;1.50;;
11173;SDS011;5643;50.856;12.088;2022-12-07T11:59:57;2.40;;;1.40;;
11173;SDS011;5643;50.856;12.088;2022-12-07T12:02:26;2.47;;;1.47;;
11173;SDS011;5643;50.856;12.088;2022-12-07T12:04:56;1.40;;;1.27;;
11173;SDS011;5643;50.856;12.088;2022-12-07T12:07:25;1.63;;;1.30;;
11173;SDS011;5643;50.856;12.088;2022-12-07T12:09:54;1.27;;;1.17;;
11173;SDS011;5643;50.856;12.088;2022-12-07T12:12:31;1.40;;;1.30;;
11173;SDS011;5643;50.856;12.088;2022-12-07T12:15:09;1.43;;;1.23;;
11173;SDS011;5643;50.856;12.088;2022-12-07T12:17:47;1.73;;;1.30;;
11173;SDS011;5643;50.856;12.088;2022-12-07T12:20:20;1.20;;;1.10;;
11173;SDS011;5643;50.856;12.088;2022-12-07T12:22:50;0.97;;;0.97;;
11173;SDS011;5643;50.856;12.088;2022-12-07T12:25:19;1.43;;;1.30;;
11173;SDS011;5643;50.856;12.088;2022-12-07T12:27:47;1.40;;;1.30;;
11173;SDS011;5643;50.856;12.088;2022-12-07T12:32:51;1.20;;;1.10;;
11173;SDS011;5643;50.856;12.088;2022-12-07T12:35:22;1.20;;;1.10;;
11173;SDS011;5643;50.856;12.088;2022-12-07T12:37:49;1.80;;;1.50;;
11173;SDS011;5643;50.856;12.088;2022-12-07T12:40:40;1.33;;;0.90;;
11173;SDS011;5643;50.856;12.088;2022-12-07T12:45:49;2.20;;;1.33;;
11173;SDS011;5643;50.856;12.088;2022-12-07T12:48:27;1.77;;;1.20;;
11173;SDS011;5643;50.856;12.088;2022-12-07T12:53:36;1.50;;;1.27;;
11173;SDS011;5643;50.856;12.088;2022-12-07T12:56:21;1.20;;;1.10;;
11173;SDS011;5643;50.856;12.088;2022-12-07T12:58:50;0.90;;;0.90;;
11173;SDS011;5643;50.856;12.088;2022-12-07T13:01:39;0.90;;;0.90;;
11173;SDS011;5643;50.856;12.088;2022-12-07T13:04:18;1.23;;;0.77;;
11173;SDS011;5643;50.856;12.088;2022-12-07T13:06:48;1.00;;;0.90;;
11173;SDS011;5643;50.856;12.088;2022-12-07T13:09:19;1.27;;;1.00;;
11173;SDS011;5643;50.856;12.088;2022-12-07T13:11:48;1.50;;;0.90;;
11173;SDS011;5643;50.856;12.088;2022-12-07T13:14:37;1.20;;;1.03;;
11173;SDS011;5643;50.856;12.088;2022-12-07T13:17:08;1.40;;;0.90;;
11173;SDS011;5643;50.856;12.088;2022-12-07T13:25:18;1.47;;;1.00;;
11173;SDS011;5643;50.856;12.088;2022-12-07T13:27:47;0.83;;;0.73;;
11173;SDS011;5643;50.856;12.088;2022-12-07T13:30:16;0.87;;;0.70;;
11173;SDS011;5643;50.856;12.088;2022-12-07T13:32:44;1.37;;;0.90;;
11173;SDS011;5643;50.856;12.088;2022-12-07T13:35:32;1.03;;;0.80;;
11173;SDS011;5643;50.856;12.088;2022-12-07T13:37:59;1.10;;;0.80;;
11173;SDS011;5643;50.856;12.088;2022-12-07T13:40:27;1.03;;;0.90;;
11173;SDS011;5643;50.856;12.088;2022-12-07T13:42:59;1.03;;;0.90;;
11173;SDS011;5643;50.856;12.088;2022-12-07T13:45:27;0.80;;;0.80;;
11173;SDS011;5643;50.856;12.088;2022-12-07T13:48:10;1.20;;;1.07;;
11173;SDS011;5643;50.856;12.088;2022-12-07T13:50:40;1.43;;;1.00;;
11173;SDS011;5643;50.856;12.088;2022-12-07T13:53:10;1.20;;;1.00;;
11173;SDS011;5643;50.856;12.088;2022-12-07T13:55:38;0.90;;;0.90;;
11173;SDS011;5643;50.856;12.088;2022-12-07T13:58:10;0.90;;;0.90;;
11173;SDS011;5643;50.856;12.088;2022-12-07T14:00:36;1.00;;;0.70;;
11173;SDS011;5643;50.856;12.088;2022-12-07T14:03:04;1.20;;;1.03;;
11173;SDS011;5643;50.856;12.088;2022-12-07T14:05:32;0.60;;;0.60;;
11173;SDS011;5643;50.856;12.088;2022-12-07T14:08:01;0.80;;;0.80;;
11173;SDS011;5643;50.856;12.088;2022-12-07T14:10:28;0.80;;;0.80;;
11173;SDS011;5643;50.856;12.088;2022-12-07T14:12:55;0.87;;;0.80;;
11173;SDS011;5643;50.856;12.088;2022-12-07T14:15:23;0.97;;;0.80;;
11173;SDS011;5643;50.856;12.088;2022-12-07T14:17:50;0.90;;;0.70;;
11173;SDS011;5643;50.856;12.088;2022-12-07T14:20:30;1.37;;;0.87;;
11173;SDS011;5643;50.856;12.088;2022-12-07T14:23:01;1.03;;;0.90;;
11173;SDS011;5643;50.856;12.088;2022-12-07T14:25:44;1.27;;;0.70;;
11173;SDS011;5643;50.856;12.088;2022-12-07T14:28:24;0.63;;;0.63;;
11173;SDS011;5643;50.856;12.088;2022-12-07T14:30:51;1.00;;;0.90;;
11173;SDS011;5643;50.856;12.088;2022-12-07T14:33:17;0.87;;;0.87;;
11173;SDS011;5643;50.856;12.088;2022-12-07T14:35:44;0.70;;;0.70;;
11173;SDS011;5643;50.856;12.088;2022-12-07T14:38:11;0.93;;;0.90;;
11173;SDS011;5643;50.856;12.088;2022-12-07T14:40:39;1.87;;;1.10;;
11173;SDS011;5643;50.856;12.088;2022-12-07T14:43:08;1.10;;;1.00;;
11173;SDS011;5643;50.856;12.088;2022-12-07T14:45:35;1.30;;;1.20;;
11173;SDS011;5643;50.856;12.088;2022-12-07T14:48:03;1.63;;;1.10;;
11173;SDS011;5643;50.856;12.088;2022-12-07T14:50:30;1.70;;;0.83;;
11173;SDS011;5643;50.856;12.088;2022-12-07T14:53:00;0.93;;;0.93;;
11173;SDS011;5643;50.856;12.088;2022-12-07T14:55:30;0.90;;;0.90;;
11173;SDS011;5643;50.856;12.088;2022-12-07T14:57:57;1.90;;;0.90;;
11173;SDS011;5643;50.856;12.088;2022-12-07T15:00:27;1.13;;;1.00;;
11173;SDS011;5643;50.856;12.088;2022-12-07T15:02:54;1.20;;;1.00;;
11173;SDS011;5643;50.856;12.088;2022-12-07T15:05:20;1.73;;;1.10;;
11173;SDS011;5643;50.856;12.088;2022-12-07T15:07:52;1.50;;;1.10;;
11173;SDS011;5643;50.856;12.088;2022-12-07T15:10:20;1.37;;;1.20;;
11173;SDS011;5643;50.856;12.088;2022-12-07T15:12:48;1.20;;;1.00;;
11173;SDS011;5643;50.856;12.088;2022-12-07T15:15:15;1.33;;;1.10;;